Time;durP1;ratioP1;P1;durP2;ratioP2;P2;SDS_P1;SDS_P2;PMS_P1;PMS_P2;Temp;Humidity;BMP_temperature;BMP_pressure;BME280_temperature;BME280_humidity;BME280_pressure;Samples;Min_cycle;Max_cycle;Signal;HPM_P1;HPM_P2
2021/11/15 00:00:15;;;;;;;53.25;27.50;;;;;;;;;;5041797;28;20128;-83
2021/11/15 00:02:42;;;;;;;52.53;25.98;;;;;;;;;;5059235;28;20054;-87
2021/11/15 00:05:09;;;;;;;58.35;27.77;;;;;;;;;;5058546;28;20109;-83
2021/11/15 00:07:36;;;;;;;61.88;27.92;;;;;;;;;;5042061;28;20047;-84
2021/11/15 00:10:03;;;;;;;54.47;26.73;;;;;;;;;;5042428;28;20048;-83
2021/11/15 00:12:29;;;;;;;53.83;27.15;;;;;;;;;;5058222;28;20056;-83
2021/11/15 00:14:56;;;;;;;57.30;28.35;;;;;;;;;;5058592;28;20044;-85
2021/11/15 00:17:22;;;;;;;61.10;28.60;;;;;;;;;;5058325;28;20142;-83
2021/11/15 00:19:48;;;;;;;59.53;29.00;;;;;;;;;;5057901;28;20045;-83
2021/11/15 00:22:14;;;;;;;62.13;29.58;;;;;;;;;;5057986;28;20053;-85
2021/11/15 00:24:40;;;;;;;57.53;29.05;;;;;;;;;;5057254;28;20049;-88
2021/11/15 00:27:06;;;;;;;62.00;29.73;;;;;;;;;;5058440;28;20049;-84
2021/11/15 00:29:32;;;;;;;61.67;30.27;;;;;;;;;;5058365;28;20055;-83
2021/11/15 00:31:58;;;;;;;59.97;29.35;;;;;;;;;;5042103;28;20055;-83
2021/11/15 00:34:24;;;;;;;63.67;28.90;;;;;;;;;;5041410;28;20123;-83
2021/11/15 00:36:50;;;;;;;59.65;29.15;;;;;;;;;;5041307;28;20044;-84
2021/11/15 00:39:17;;;;;;;63.30;30.60;;;;;;;;;;5057775;28;20045;-83
2021/11/15 00:41:44;;;;;;;61.13;29.67;;;;;;;;;;5057570;28;20059;-87
2021/11/15 00:44:10;;;;;;;59.92;29.17;;;;;;;;;;5057764;28;20044;-84
2021/11/15 00:46:37;;;;;;;63.63;29.92;;;;;;;;;;5055553;28;20118;-84
2021/11/15 00:49:03;;;;;;;62.05;30.17;;;;;;;;;;5038132;28;20140;-83
2021/11/15 00:51:30;;;;;;;60.60;29.17;;;;;;;;;;5021378;28;20048;-84
2021/11/15 00:53:56;;;;;;;64.57;29.98;;;;;;;;;;5037641;28;20053;-83
2021/11/15 00:56:22;;;;;;;67.68;32.03;;;;;;;;;;5021189;28;20049;-84
2021/11/15 00:58:49;;;;;;;67.40;31.48;;;;;;;;;;5021011;28;20072;-83
2021/11/15 01:01:15;;;;;;;66.10;31.73;;;;;;;;;;5020791;28;20128;-84
2021/11/15 01:03:41;;;;;;;64.65;30.55;;;;;;;;;;5037378;28;20468;-87
2021/11/15 01:06:07;;;;;;;66.00;28.98;;;;;;;;;;5037571;28;20060;-83
2021/11/15 01:08:33;;;;;;;66.68;29.73;;;;;;;;;;5037361;28;20041;-83
2021/11/15 01:11:00;;;;;;;70.63;31.20;;;;;;;;;;5038150;28;20087;-84
2021/11/15 01:13:26;;;;;;;69.03;31.30;;;;;;;;;;5020834;28;20053;-85
2021/11/15 01:15:53;;;;;;;71.43;31.02;;;;;;;;;;5037026;28;20052;-83
2021/11/15 01:18:19;;;;;;;72.30;31.40;;;;;;;;;;5037490;28;20488;-84
2021/11/15 01:20:45;;;;;;;66.22;30.75;;;;;;;;;;5037207;28;20044;-84
2021/11/15 01:23:11;;;;;;;74.40;31.27;;;;;;;;;;5037230;28;20136;-84
2021/11/15 01:25:38;;;;;;;68.47;31.30;;;;;;;;;;5037439;28;20056;-84
2021/11/15 01:28:04;;;;;;;71.93;31.30;;;;;;;;;;5037029;28;20088;-83
2021/11/15 01:30:30;;;;;;;65.13;29.90;;;;;;;;;;5037144;28;20098;-83
2021/11/15 01:32:56;;;;;;;67.10;30.42;;;;;;;;;;5036975;28;20070;-84
2021/11/15 01:35:23;;;;;;;68.88;31.92;;;;;;;;;;5036938;28;20044;-83
2021/11/15 01:37:50;;;;;;;73.78;31.38;;;;;;;;;;5020014;28;20572;-86
2021/11/15 01:40:17;;;;;;;67.65;30.55;;;;;;;;;;5020050;28;20107;-84
2021/11/15 01:42:43;;;;;;;75.10;30.85;;;;;;;;;;5037473;28;20107;-86
2021/11/15 01:45:10;;;;;;;66.45;30.90;;;;;;;;;;5021108;28;20044;-84
2021/11/15 01:47:36;;;;;;;70.22;30.25;;;;;;;;;;5046457;28;20067;-83
2021/11/15 01:50:04;;;;;;;62.92;29.63;;;;;;;;;;5039650;28;20044;-83
2021/11/15 01:52:30;;;;;;;71.88;31.02;;;;;;;;;;5056245;28;20049;-83
2021/11/15 01:54:56;;;;;;;65.20;28.52;;;;;;;;;;5039950;28;20144;-83
2021/11/15 01:57:22;;;;;;;66.18;29.73;;;;;;;;;;5056493;28;20110;-84
2021/11/15 01:59:49;;;;;;;68.00;29.80;;;;;;;;;;5056056;28;20045;-83
2021/11/15 02:02:15;;;;;;;62.15;27.80;;;;;;;;;;5039625;28;20041;-83
2021/11/15 02:04:41;;;;;;;64.82;28.75;;;;;;;;;;5039271;28;20044;-88
2021/11/15 02:07:07;;;;;;;66.82;29.55;;;;;;;;;;5056209;28;20059;-84
2021/11/15 02:09:33;;;;;;;67.03;29.20;;;;;;;;;;5056240;28;20089;-83
2021/11/15 02:12:00;;;;;;;66.32;29.23;;;;;;;;;;5039350;28;20052;-84
2021/11/15 02:14:26;;;;;;;67.70;28.92;;;;;;;;;;5055885;28;20041;-84
2021/11/15 02:16:52;;;;;;;65.47;29.55;;;;;;;;;;5055958;28;20052;-83
2021/11/15 02:19:19;;;;;;;67.88;29.48;;;;;;;;;;5038937;28;20048;-85
2021/11/15 02:21:45;;;;;;;63.33;28.20;;;;;;;;;;5055988;28;20044;-83
2021/11/15 02:24:11;;;;;;;60.60;27.65;;;;;;;;;;5039220;28;20116;-84
2021/11/15 02:26:37;;;;;;;64.63;27.85;;;;;;;;;;5055561;28;20060;-85
2021/11/15 02:29:03;;;;;;;64.13;29.02;;;;;;;;;;5039943;28;20409;-84
2021/11/15 02:31:30;;;;;;;58.75;27.75;;;;;;;;;;5039566;28;20139;-83
2021/11/15 02:33:58;;;;;;;59.40;27.20;;;;;;;;;;5056360;28;20052;-83
2021/11/15 02:36:26;;;;;;;58.70;27.42;;;;;;;;;;5055590;28;20097;-85
2021/11/15 02:38:52;;;;;;;63.38;29.08;;;;;;;;;;5055396;28;20561;-83
2021/11/15 02:41:19;;;;;;;61.88;28.20;;;;;;;;;;5055871;28;20401;-83
2021/11/15 02:43:46;;;;;;;55.10;26.13;;;;;;;;;;5055475;28;20442;-84
2021/11/15 02:46:13;;;;;;;60.60;27.52;;;;;;;;;;5056383;28;20058;-84
2021/11/15 02:48:39;;;;;;;55.35;26.45;;;;;;;;;;5072542;28;20049;-83
2021/11/15 02:51:06;;;;;;;60.22;26.48;;;;;;;;;;5039679;28;20044;-83
2021/11/15 02:53:32;;;;;;;55.83;25.38;;;;;;;;;;5055305;28;20056;-83
2021/11/15 02:55:58;;;;;;;55.03;26.13;;;;;;;;;;5039129;28;20389;-84
2021/11/15 02:58:24;;;;;;;55.70;25.77;;;;;;;;;;5054980;28;20549;-84
2021/11/15 03:00:53;;;;;;;59.03;26.73;;;;;;;;;;5073179;28;20098;-83
2021/11/15 03:03:19;;;;;;;55.72;25.23;;;;;;;;;;5055298;28;20366;-84
2021/11/15 03:05:47;;;;;;;53.92;25.02;;;;;;;;;;5038784;28;20071;-87
2021/11/15 03:08:14;;;;;;;54.50;25.33;;;;;;;;;;5055856;28;20473;-83
2021/11/15 03:10:42;;;;;;;61.15;27.05;;;;;;;;;;5039409;28;20064;-85
2021/11/15 03:13:09;;;;;;;57.38;25.60;;;;;;;;;;5055283;28;20048;-83
2021/11/15 03:15:39;;;;;;;60.08;26.10;;;;;;;;;;5055610;28;20048;-84
2021/11/15 03:18:08;;;;;;;55.83;25.15;;;;;;;;;;5055258;28;20084;-83
2021/11/15 03:20:36;;;;;;;56.58;26.10;;;;;;;;;;5038544;28;20048;-84
2021/11/15 03:23:10;;;;;;;57.17;25.08;;;;;;;;;;5038531;28;20059;-84
2021/11/15 03:25:36;;;;;;;53.97;24.40;;;;;;;;;;5038593;28;20051;-84
2021/11/15 03:28:03;;;;;;;62.08;25.38;;;;;;;;;;5055127;28;20080;-83
2021/11/15 03:30:29;;;;;;;58.38;26.00;;;;;;;;;;5055016;28;20052;-83
2021/11/15 03:32:55;;;;;;;55.55;25.75;;;;;;;;;;5039000;28;20053;-83
2021/11/15 03:35:22;;;;;;;59.95;24.67;;;;;;;;;;5055841;28;20052;-84
2021/11/15 03:37:49;;;;;;;55.45;25.33;;;;;;;;;;5055012;28;20075;-83
2021/11/15 03:40:20;;;;;;;58.40;25.63;;;;;;;;;;5038749;28;20051;-85
2021/11/15 03:42:47;;;;;;;58.80;25.77;;;;;;;;;;5054910;28;20546;-87
2021/11/15 03:45:13;;;;;;;56.97;25.45;;;;;;;;;;5055019;28;20484;-83
2021/11/15 03:47:40;;;;;;;59.22;26.38;;;;;;;;;;5027520;28;20064;-84
2021/11/15 03:50:07;;;;;;;58.03;24.80;;;;;;;;;;5035763;28;20434;-84
2021/11/15 03:52:34;;;;;;;58.20;25.83;;;;;;;;;;5035337;28;20048;-83
2021/11/15 03:55:00;;;;;;;60.72;25.52;;;;;;;;;;5018560;28;20470;-84
2021/11/15 03:57:26;;;;;;;57.90;24.25;;;;;;;;;;5019118;28;20041;-83
2021/11/15 03:59:53;;;;;;;55.20;24.20;;;;;;;;;;5035321;28;20045;-85
2021/11/15 04:02:22;;;;;;;56.90;24.30;;;;;;;;;;5038695;28;20472;-84
2021/11/15 04:05:01;;;;;;;50.25;23.23;;;;;;;;;;5022497;28;20044;-83
2021/11/15 04:07:31;;;;;;;54.83;23.88;;;;;;;;;;5022622;28;20045;-84
2021/11/15 04:09:59;;;;;;;55.90;24.05;;;;;;;;;;5022822;28;20115;-84
2021/11/15 04:12:26;;;;;;;51.15;23.77;;;;;;;;;;5038579;28;20053;-84
2021/11/15 04:14:52;;;;;;;54.17;23.13;;;;;;;;;;5038426;28;20059;-83
2021/11/15 04:17:19;;;;;;;54.67;24.08;;;;;;;;;;5021788;28;20048;-83
2021/11/15 04:19:46;;;;;;;52.78;22.67;;;;;;;;;;5038180;28;20041;-87
2021/11/15 04:22:12;;;;;;;51.28;22.50;;;;;;;;;;5039119;28;20103;-84
2021/11/15 04:24:38;;;;;;;52.00;22.65;;;;;;;;;;5039147;28;20049;-86
2021/11/15 04:27:05;;;;;;;56.15;23.23;;;;;;;;;;5038066;28;20482;-83
2021/11/15 04:29:32;;;;;;;50.38;21.48;;;;;;;;;;5038116;28;20075;-83
2021/11/15 04:31:58;;;;;;;50.95;21.77;;;;;;;;;;5021441;28;20501;-83
2021/11/15 04:34:24;;;;;;;50.65;22.33;;;;;;;;;;5021717;28;20055;-84
2021/11/15 04:36:50;;;;;;;50.65;22.33;;;;;;;;;;5038138;28;20127;-83
2021/11/15 04:39:16;;;;;;;48.17;21.73;;;;;;;;;;5037613;28;20041;-84
2021/11/15 04:41:42;;;;;;;50.80;22.42;;;;;;;;;;5037804;28;20580;-85
2021/11/15 04:44:08;;;;;;;48.22;20.65;;;;;;;;;;5038321;28;20127;-84
2021/11/15 04:46:35;;;;;;;45.50;20.25;;;;;;;;;;5039454;28;20485;-83
2021/11/15 04:49:01;;;;;;;42.47;19.45;;;;;;;;;;5041953;28;20521;-84
2021/11/15 04:51:27;;;;;;;43.03;18.60;;;;;;;;;;5057838;28;20044;-84
2021/11/15 04:53:53;;;;;;;41.15;18.77;;;;;;;;;;5057640;28;20055;-83
2021/11/15 04:56:19;;;;;;;41.25;19.17;;;;;;;;;;5057900;28;20462;-83
2021/11/15 04:58:45;;;;;;;41.72;18.98;;;;;;;;;;5057672;28;20045;-83
2021/11/15 05:01:11;;;;;;;42.20;19.13;;;;;;;;;;5058264;28;20501;-82
2021/11/15 05:03:37;;;;;;;42.60;18.38;;;;;;;;;;5041626;28;20177;-84
2021/11/15 05:06:04;;;;;;;36.90;17.30;;;;;;;;;;5040827;28;20088;-84
2021/11/15 05:08:30;;;;;;;36.08;16.52;;;;;;;;;;5040687;28;20131;-83
2021/11/15 05:10:56;;;;;;;38.08;16.83;;;;;;;;;;5056963;28;20067;-84
2021/11/15 05:13:23;;;;;;;34.88;17.50;;;;;;;;;;5057130;28;20052;-84
2021/11/15 05:15:49;;;;;;;35.53;16.60;;;;;;;;;;5074824;28;20048;-87
2021/11/15 05:18:15;;;;;;;36.72;16.98;;;;;;;;;;5057141;28;20179;-84
2021/11/15 05:20:41;;;;;;;36.40;17.15;;;;;;;;;;5057446;28;20083;-84
2021/11/15 05:23:08;;;;;;;33.88;16.52;;;;;;;;;;5040624;28;20472;-84
2021/11/15 05:25:34;;;;;;;36.25;16.38;;;;;;;;;;5040521;28;20048;-83
2021/11/15 05:28:00;;;;;;;37.30;16.98;;;;;;;;;;5057770;28;20051;-83
2021/11/15 05:30:26;;;;;;;36.38;17.92;;;;;;;;;;5057839;28;20083;-85
2021/11/15 05:32:55;;;;;;;40.58;18.20;;;;;;;;;;5056841;28;20044;-83
2021/11/15 05:35:21;;;;;;;40.38;17.90;;;;;;;;;;5056812;28;20080;-84
2021/11/15 05:37:51;;;;;;;38.63;17.77;;;;;;;;;;5040233;28;20053;-87
2021/11/15 05:40:18;;;;;;;41.92;18.30;;;;;;;;;;5039955;28;20067;-83
2021/11/15 05:42:44;;;;;;;40.08;19.20;;;;;;;;;;5040628;28;20484;-83
2021/11/15 05:45:10;;;;;;;41.47;18.70;;;;;;;;;;5056938;28;20076;-83
2021/11/15 05:47:37;;;;;;;42.38;18.70;;;;;;;;;;5056470;28;20056;-84
2021/11/15 05:50:06;;;;;;;45.80;20.30;;;;;;;;;;5074197;28;20182;-83
2021/11/15 05:52:34;;;;;;;41.47;18.70;;;;;;;;;;5056807;28;20102;-83
2021/11/15 05:55:00;;;;;;;48.42;21.40;;;;;;;;;;5039554;28;20131;-84
2021/11/15 05:57:26;;;;;;;50.20;22.27;;;;;;;;;;5056542;28;20044;-84
2021/11/15 05:59:52;;;;;;;59.08;24.52;;;;;;;;;;5056883;28;20101;-82
2021/11/15 06:02:18;;;;;;;58.20;24.67;;;;;;;;;;5056179;28;20497;-84
2021/11/15 06:04:44;;;;;;;60.67;24.08;;;;;;;;;;5039992;28;20055;-85
2021/11/15 06:07:10;;;;;;;58.90;25.00;;;;;;;;;;5039879;28;20485;-83
2021/11/15 06:09:36;;;;;;;58.70;23.70;;;;;;;;;;5056332;28;20044;-83
2021/11/15 06:12:02;;;;;;;56.40;23.65;;;;;;;;;;5040299;28;20044;-83
2021/11/15 06:14:28;;;;;;;63.90;25.63;;;;;;;;;;5056200;28;20369;-83
2021/11/15 06:16:54;;;;;;;55.75;23.63;;;;;;;;;;5055848;28;20139;-83
2021/11/15 06:19:21;;;;;;;58.90;23.90;;;;;;;;;;5074361;28;20044;-84
2021/11/15 06:21:47;;;;;;;59.72;24.10;;;;;;;;;;5055502;28;20060;-84
2021/11/15 06:24:13;;;;;;;58.95;24.67;;;;;;;;;;5055627;28;20087;-83
2021/11/15 06:26:39;;;;;;;58.60;24.00;;;;;;;;;;5055916;28;20045;-83
2021/11/15 06:29:05;;;;;;;59.05;23.45;;;;;;;;;;5039622;28;20044;-82
2021/11/15 06:31:31;;;;;;;51.60;21.50;;;;;;;;;;5039423;28;20071;-83
2021/11/15 06:33:57;;;;;;;53.55;23.20;;;;;;;;;;5055751;28;20044;-83
2021/11/15 06:36:24;;;;;;;50.97;21.25;;;;;;;;;;5056116;28;20048;-83
2021/11/15 06:38:51;;;;;;;50.03;21.77;;;;;;;;;;5055782;28;20440;-86
2021/11/15 06:41:17;;;;;;;58.42;24.08;;;;;;;;;;5055939;28;20098;-83
2021/11/15 06:43:43;;;;;;;61.65;24.42;;;;;;;;;;5073407;28;20060;-82
2021/11/15 06:46:09;;;;;;;55.63;23.52;;;;;;;;;;5055611;28;20441;-83
2021/11/15 06:48:41;;;;;;;55.92;22.35;;;;;;;;;;5036976;28;20386;-83
2021/11/15 06:51:08;;;;;;;52.13;22.65;;;;;;;;;;5019949;28;20378;-83
2021/11/15 06:53:35;;;;;;;63.10;23.50;;;;;;;;;;5035412;28;20049;-82
2021/11/15 06:56:01;;;;;;;63.00;23.65;;;;;;;;;;5035520;28;20374;-83
2021/11/15 06:58:27;;;;;;;56.08;23.33;;;;;;;;;;5035924;28;20108;-83
2021/11/15 07:00:54;;;;;;;54.83;22.95;;;;;;;;;;5035149;28;20057;-82
2021/11/15 07:03:20;;;;;;;61.03;23.80;;;;;;;;;;5019235;28;20053;-84
2021/11/15 07:05:48;;;;;;;60.08;24.88;;;;;;;;;;5019780;28;20099;-83
2021/11/15 07:08:14;;;;;;;62.40;24.73;;;;;;;;;;5019173;28;20059;-83
2021/11/15 07:10:40;;;;;;;63.20;24.60;;;;;;;;;;5019054;28;20059;-83
2021/11/15 07:13:06;;;;;;;69.68;25.58;;;;;;;;;;5036053;28;20049;-83
2021/11/15 07:15:32;;;;;;;66.15;24.95;;;;;;;;;;5035620;28;20466;-83
2021/11/15 07:17:58;;;;;;;67.22;26.60;;;;;;;;;;5035219;28;20053;-86
2021/11/15 07:20:24;;;;;;;64.75;26.25;;;;;;;;;;5018831;28;20071;-83
2021/11/15 07:22:51;;;;;;;70.38;27.55;;;;;;;;;;5035527;28;20083;-86
2021/11/15 07:25:18;;;;;;;66.43;26.33;;;;;;;;;;5035393;28;20414;-84
2021/11/15 07:27:45;;;;;;;72.60;26.92;;;;;;;;;;5035237;28;20068;-84
2021/11/15 07:30:11;;;;;;;71.40;26.65;;;;;;;;;;5035135;28;20045;-84
2021/11/15 07:32:39;;;;;;;71.25;26.10;;;;;;;;;;5018676;28;20049;-83
2021/11/15 07:35:05;;;;;;;76.35;28.73;;;;;;;;;;5021504;28;20052;-83
2021/11/15 07:37:31;;;;;;;75.97;28.75;;;;;;;;;;5022823;28;20072;-83
2021/11/15 07:39:57;;;;;;;79.25;29.17;;;;;;;;;;5039155;28;20068;-83
2021/11/15 07:42:23;;;;;;;67.18;26.20;;;;;;;;;;5039155;28;20061;-84
2021/11/15 07:44:49;;;;;;;57.17;23.58;;;;;;;;;;5039793;28;20048;-85
2021/11/15 07:47:15;;;;;;;64.57;24.83;;;;;;;;;;5046467;28;20056;-84
2021/11/15 07:49:42;;;;;;;61.22;23.48;;;;;;;;;;5059022;28;20511;-85
2021/11/15 07:52:09;;;;;;;57.40;21.15;;;;;;;;;;5043144;28;20048;-85
2021/11/15 07:54:35;;;;;;;50.00;20.38;;;;;;;;;;5042406;28;20397;-86
2021/11/15 07:57:01;;;;;;;53.55;21.67;;;;;;;;;;5043079;28;20102;-85
2021/11/15 07:59:27;;;;;;;56.08;21.33;;;;;;;;;;5042230;28;20079;-84
2021/11/15 08:01:56;;;;;;;52.70;20.23;;;;;;;;;;5042086;28;20052;-87
2021/11/15 08:04:22;;;;;;;50.60;20.60;;;;;;;;;;5058630;28;20057;-84
2021/11/15 08:06:48;;;;;;;55.50;20.10;;;;;;;;;;5059356;28;20087;-83
2021/11/15 08:09:14;;;;;;;57.65;21.10;;;;;;;;;;5058453;28;20139;-83
2021/11/15 08:11:43;;;;;;;55.60;20.55;;;;;;;;;;5058548;28;20044;-82
2021/11/15 08:14:09;;;;;;;54.13;21.40;;;;;;;;;;5041481;28;20045;-84
2021/11/15 08:16:35;;;;;;;50.63;19.73;;;;;;;;;;5042420;28;20055;-83
2021/11/15 08:19:01;;;;;;;50.10;20.02;;;;;;;;;;5058253;28;20044;-83
2021/11/15 08:21:27;;;;;;;51.95;20.73;;;;;;;;;;5058770;28;20090;-83
2021/11/15 08:23:53;;;;;;;53.55;21.17;;;;;;;;;;5058936;28;20190;-85
2021/11/15 08:26:29;;;;;;;59.33;21.70;;;;;;;;;;5058107;28;20080;-83
2021/11/15 08:28:54;;;;;;;;;;;;;;;;;;5041902;28;20041;-83
2021/11/15 08:31:22;;;;;;;51.63;20.63;;;;;;;;;;5042198;28;20392;-82
2021/11/15 08:33:49;;;;;;;50.08;19.67;;;;;;;;;;5058078;28;20041;-82
2021/11/15 08:36:15;;;;;;;49.58;19.00;;;;;;;;;;5057844;28;20130;-83
2021/11/15 08:38:48;;;;;;;53.33;19.02;;;;;;;;;;5057723;28;20412;-83
2021/11/15 08:41:15;;;;;;;47.30;18.85;;;;;;;;;;5057812;28;20040;-83
2021/11/15 08:43:42;;;;;;;46.58;19.33;;;;;;;;;;5057833;28;20048;-85
2021/11/15 08:46:08;;;;;;;51.33;19.90;;;;;;;;;;5056896;28;20087;-83
2021/11/15 08:48:35;;;;;;;39.53;17.13;;;;;;;;;;5041067;28;20102;-83
2021/11/15 08:51:05;;;;;;;35.30;15.40;;;;;;;;;;5041061;28;20102;-84
2021/11/15 08:53:31;;;;;;;36.20;14.10;;;;;;;;;;5041002;28;20053;-85
2021/11/15 08:55:57;;;;;;;37.05;14.95;;;;;;;;;;5057878;28;20048;-83
2021/11/15 08:58:23;;;;;;;36.00;14.32;;;;;;;;;;5057511;28;20058;-83
2021/11/15 09:00:50;;;;;;;33.92;13.95;;;;;;;;;;5058327;28;20055;-83
2021/11/15 09:03:17;;;;;;;35.60;14.68;;;;;;;;;;5057516;28;20052;-83
2021/11/15 09:05:43;;;;;;;27.80;12.80;;;;;;;;;;5041544;28;20381;-83
2021/11/15 09:08:10;;;;;;;30.05;13.13;;;;;;;;;;5057335;28;20048;-82
2021/11/15 09:10:36;;;;;;;32.00;13.55;;;;;;;;;;5058036;28;20396;-83
2021/11/15 09:13:02;;;;;;;30.70;13.52;;;;;;;;;;5057424;28;20094;-83
2021/11/15 09:15:28;;;;;;;32.25;13.68;;;;;;;;;;5057571;28;20432;-83
2021/11/15 09:17:55;;;;;;;31.52;13.07;;;;;;;;;;5040473;28;20145;-85
2021/11/15 09:20:21;;;;;;;38.15;13.50;;;;;;;;;;5075207;28;20053;-83
2021/11/15 09:22:47;;;;;;;31.13;12.82;;;;;;;;;;5057188;28;20036;-83
2021/11/15 09:25:13;;;;;;;34.13;13.95;;;;;;;;;;5056745;28;20119;-82
2021/11/15 09:27:40;;;;;;;31.77;12.85;;;;;;;;;;5041356;28;20060;-84
2021/11/15 09:30:07;;;;;;;29.67;12.18;;;;;;;;;;5057641;28;20063;-83
2021/11/15 09:32:33;;;;;;;28.08;11.52;;;;;;;;;;5056916;28;20044;-83
2021/11/15 09:34:59;;;;;;;29.85;11.27;;;;;;;;;;5056869;28;20135;-84
2021/11/15 09:37:27;;;;;;;27.95;11.35;;;;;;;;;;5056454;28;20047;-83
2021/11/15 09:39:55;;;;;;;26.33;11.85;;;;;;;;;;5039969;28;20049;-87
2021/11/15 09:42:21;;;;;;;26.50;11.60;;;;;;;;;;5040071;28;20045;-83
2021/11/15 09:44:48;;;;;;;27.05;12.30;;;;;;;;;;5056743;28;20037;-83
2021/11/15 09:47:15;;;;;;;29.13;12.30;;;;;;;;;;5033305;28;20053;-83
2021/11/15 09:49:42;;;;;;;32.67;13.45;;;;;;;;;;5022679;28;20363;-83
2021/11/15 09:52:09;;;;;;;32.15;13.27;;;;;;;;;;5057364;28;20113;-84
2021/11/15 09:54:35;;;;;;;30.42;12.55;;;;;;;;;;5074700;28;20040;-83
2021/11/15 09:57:01;;;;;;;29.92;12.30;;;;;;;;;;5073404;28;20051;-84
2021/11/15 09:59:29;;;;;;;31.30;12.93;;;;;;;;;;5039240;28;20048;-84
2021/11/15 10:01:56;;;;;;;29.52;12.23;;;;;;;;;;5056358;28;20517;-86
2021/11/15 10:04:22;;;;;;;26.85;11.50;;;;;;;;;;5056782;28;20083;-83
2021/11/15 10:06:52;;;;;;;24.92;10.43;;;;;;;;;;5056317;28;20464;-83
2021/11/15 10:09:32;;;;;;;26.00;10.00;;;;;;;;;;5056400;28;20050;-83
2021/11/15 10:11:59;;;;;;;22.95;10.20;;;;;;;;;;5056403;28;20048;-83
2021/11/15 10:14:26;;;;;;;21.15;9.88;;;;;;;;;;5056136;28;20040;-83
2021/11/15 10:16:58;;;;;;;21.30;9.25;;;;;;;;;;5039764;28;20427;-83
2021/11/15 10:19:24;;;;;;;22.83;10.02;;;;;;;;;;5055734;28;20119;-83
2021/11/15 10:21:55;;;;;;;22.40;9.38;;;;;;;;;;5039209;28;20048;-84
2021/11/15 10:24:22;;;;;;;23.75;9.57;;;;;;;;;;5056227;28;20139;-83
2021/11/15 10:26:51;;;;;;;24.95;10.23;;;;;;;;;;5056092;28;20056;-82
2021/11/15 10:29:20;;;;;;;24.40;10.88;;;;;;;;;;5056383;28;20103;-83
2021/11/15 10:31:51;;;;;;;32.80;12.52;;;;;;;;;;5040020;28;20048;-83
2021/11/15 10:34:34;;;;;;;27.85;11.65;;;;;;;;;;5056431;28;20047;-83
2021/11/15 10:37:04;;;;;;;28.10;11.85;;;;;;;;;;5055748;28;20044;-83
2021/11/15 10:39:32;;;;;;;26.23;11.52;;;;;;;;;;5056277;28;20064;-84
2021/11/15 10:41:58;;;;;;;29.63;11.75;;;;;;;;;;5039006;28;20405;-84
2021/11/15 10:44:24;;;;;;;30.13;12.23;;;;;;;;;;5039793;28;20044;-83
2021/11/15 10:46:51;;;;;;;30.17;12.38;;;;;;;;;;5038849;28;20072;-84
2021/11/15 10:49:18;;;;;;;27.27;11.35;;;;;;;;;;5039008;28;20056;-83
2021/11/15 10:51:49;;;;;;;25.77;11.35;;;;;;;;;;5055467;28;20049;-83
2021/11/15 10:54:47;;;;;;;26.90;11.75;;;;;;;;;;5056201;28;20495;-83
2021/11/15 10:57:19;;;;;;;24.42;10.02;;;;;;;;;;5055605;28;20059;-84
2021/11/15 10:59:45;;;;;;;28.42;11.13;;;;;;;;;;5055285;28;20048;-84
2021/11/15 11:02:28;;;;;;;27.85;11.55;;;;;;;;;;5038874;28;20052;-84
2021/11/15 11:05:11;;;;;;;24.38;10.75;;;;;;;;;;5055343;28;20107;-83
2021/11/15 11:07:38;;;;;;;27.10;11.55;;;;;;;;;;5055463;28;20498;-84
2021/11/15 11:10:08;;;;;;;24.42;10.40;;;;;;;;;;5038501;28;20043;-83
2021/11/15 11:12:38;;;;;;;23.70;10.35;;;;;;;;;;5039510;28;20147;-83
2021/11/15 11:15:26;;;;;;;22.73;10.18;;;;;;;;;;5055963;28;20053;-83
2021/11/15 11:18:17;;;;;;;24.30;10.05;;;;;;;;;;5039382;28;20063;-84
2021/11/15 11:21:44;;;;;;;24.23;10.85;;;;;;;;;;5038270;28;20056;-84
2021/11/15 11:26:11;;;;;;;23.95;11.10;;;;;;;;;;5055914;28;20044;-84
2021/11/15 11:28:38;;;;;;;24.33;10.80;;;;;;;;;;5038565;28;20044;-83
2021/11/15 11:31:05;;;;;;;23.90;10.68;;;;;;;;;;5055114;28;20449;-83
2021/11/15 11:33:31;;;;;;;23.92;10.60;;;;;;;;;;5038700;28;20091;-83
2021/11/15 11:36:02;;;;;;;28.73;10.35;;;;;;;;;;5038225;28;20136;-87
2021/11/15 11:38:28;;;;;;;22.92;9.82;;;;;;;;;;5055034;28;20102;-83
2021/11/15 11:40:54;;;;;;;25.80;10.85;;;;;;;;;;5055109;28;20045;-84
2021/11/15 11:43:21;;;;;;;21.25;9.35;;;;;;;;;;5055256;28;20080;-83
2021/11/15 11:45:48;;;;;;;22.10;10.05;;;;;;;;;;5055537;28;20500;-83
2021/11/15 11:48:15;;;;;;;22.25;9.70;;;;;;;;;;5024608;28;20059;-83
2021/11/15 11:50:48;;;;;;;22.00;9.10;;;;;;;;;;5018485;28;20505;-84
2021/11/15 11:53:20;;;;;;;21.90;9.45;;;;;;;;;;5035279;28;20187;-84
2021/11/15 11:55:46;;;;;;;20.75;9.52;;;;;;;;;;5035820;28;20045;-82
2021/11/15 11:58:19;;;;;;;21.35;9.95;;;;;;;;;;5035222;28;20400;-83
2021/11/15 12:00:49;;;;;;;19.88;9.73;;;;;;;;;;5035097;28;20093;-84
2021/11/15 12:03:15;;;;;;;17.80;9.15;;;;;;;;;;5018213;28;20052;-82
2021/11/15 12:05:43;;;;;;;19.38;9.02;;;;;;;;;;5018745;28;20118;-84
2021/11/15 12:08:09;;;;;;;18.85;8.60;;;;;;;;;;5034937;28;20522;-83
2021/11/15 12:10:41;;;;;;;17.33;8.23;;;;;;;;;;5035010;28;20052;-83
2021/11/15 12:13:08;;;;;;;17.42;8.55;;;;;;;;;;5035090;28;20485;-83
2021/11/15 12:15:34;;;;;;;15.20;7.68;;;;;;;;;;5034991;28;20048;-83
2021/11/15 12:18:19;;;;;;;14.80;7.50;;;;;;;;;;5018405;28;20049;-84
2021/11/15 12:21:01;;;;;;;14.97;7.27;;;;;;;;;;5018940;28;20138;-82
2021/11/15 12:23:28;;;;;;;16.13;7.20;;;;;;;;;;5022052;28;20482;-83
2021/11/15 12:26:25;;;;;;;18.30;7.75;;;;;;;;;;5039009;28;20090;-83
2021/11/15 12:28:59;;;;;;;17.20;7.80;;;;;;;;;;5036842;28;20060;-83
2021/11/15 12:31:43;;;;;;;18.17;8.25;;;;;;;;;;5038675;28;20049;-83
2021/11/15 12:34:09;;;;;;;20.40;9.05;;;;;;;;;;5021937;28;20049;-83
2021/11/15 12:36:37;;;;;;;19.60;8.57;;;;;;;;;;5038163;28;20084;-83
2021/11/15 12:39:09;;;;;;;17.90;8.50;;;;;;;;;;5037655;28;20064;-83
2021/11/15 12:41:36;;;;;;;20.27;9.13;;;;;;;;;;5037726;28;20045;-82
2021/11/15 12:44:06;;;;;;;20.42;8.90;;;;;;;;;;5037996;28;20044;-83
2021/11/15 12:46:39;;;;;;;20.58;9.35;;;;;;;;;;5021687;28;20051;-84
2021/11/15 12:49:23;;;;;;;20.08;9.13;;;;;;;;;;5041377;28;20137;-83
2021/11/15 12:51:50;;;;;;;19.85;9.50;;;;;;;;;;5058069;28;20483;-83
2021/11/15 12:54:16;;;;;;;25.00;10.40;;;;;;;;;;5040681;28;20136;-83
2021/11/15 12:56:44;;;;;;;21.05;9.98;;;;;;;;;;5057628;28;20053;-83
2021/11/15 12:59:11;;;;;;;23.63;10.73;;;;;;;;;;5041651;28;20385;-84
2021/11/15 13:01:37;;;;;;;24.17;10.88;;;;;;;;;;5041195;28;20056;-82
2021/11/15 13:04:03;;;;;;;27.02;12.18;;;;;;;;;;5041181;28;20131;-83
2021/11/15 13:06:29;;;;;;;34.03;14.70;;;;;;;;;;5057400;28;20040;-83
2021/11/15 13:08:55;;;;;;;35.53;15.05;;;;;;;;;;5057711;28;20056;-83
2021/11/15 13:11:22;;;;;;;35.72;16.02;;;;;;;;;;5057379;28;20468;-83
2021/11/15 13:13:49;;;;;;;38.38;16.55;;;;;;;;;;5057566;28;20099;-83
2021/11/15 13:16:16;;;;;;;43.45;18.70;;;;;;;;;;5057046;28;20048;-83
2021/11/15 13:18:42;;;;;;;45.95;20.27;;;;;;;;;;5057419;28;20469;-83
2021/11/15 13:21:10;;;;;;;48.75;21.45;;;;;;;;;;5056526;28;20101;-83
2021/11/15 13:23:39;;;;;;;51.97;21.80;;;;;;;;;;5040583;28;20093;-83
2021/11/15 13:26:07;;;;;;;57.72;23.60;;;;;;;;;;5057289;28;20183;-83
2021/11/15 13:28:34;;;;;;;51.33;23.05;;;;;;;;;;5041084;28;20048;-82
2021/11/15 13:31:00;;;;;;;59.08;24.27;;;;;;;;;;5056635;28;20374;-83
2021/11/15 13:33:26;;;;;;;63.20;26.75;;;;;;;;;;5057397;28;20060;-82
2021/11/15 13:35:52;;;;;;;60.33;25.55;;;;;;;;;;5041086;28;20055;-83
2021/11/15 13:38:18;;;;;;;61.17;26.17;;;;;;;;;;5056563;28;20045;-82
2021/11/15 13:40:46;;;;;;;59.05;25.77;;;;;;;;;;5056527;28;20107;-83
2021/11/15 13:43:13;;;;;;;66.75;28.90;;;;;;;;;;5057426;28;20053;-83
2021/11/15 13:45:41;;;;;;;63.00;26.85;;;;;;;;;;5039753;28;20052;-82
2021/11/15 13:48:07;;;;;;;67.75;28.55;;;;;;;;;;5039421;28;20060;-83
2021/11/15 13:50:34;;;;;;;65.43;28.80;;;;;;;;;;5056560;28;20400;-83
2021/11/15 13:53:00;;;;;;;62.75;26.75;;;;;;;;;;5039863;28;20037;-85
2021/11/15 13:55:27;;;;;;;66.70;28.50;;;;;;;;;;5056572;28;20044;-84
2021/11/15 13:57:53;;;;;;;66.93;28.92;;;;;;;;;;5056447;28;20045;-82
2021/11/15 14:00:19;;;;;;;70.25;28.80;;;;;;;;;;5039468;28;20074;-83
2021/11/15 14:02:46;;;;;;;66.63;28.80;;;;;;;;;;5056452;28;20047;-83
2021/11/15 14:05:12;;;;;;;65.15;28.80;;;;;;;;;;5039721;28;20060;-83
2021/11/15 14:07:39;;;;;;;69.22;29.65;;;;;;;;;;5040385;28;20052;-82
2021/11/15 14:10:05;;;;;;;72.90;30.70;;;;;;;;;;5056521;28;20088;-82
2021/11/15 14:12:31;;;;;;;73.85;30.80;;;;;;;;;;5039223;28;20060;-81
2021/11/15 14:14:58;;;;;;;71.03;31.20;;;;;;;;;;5056149;28;20044;-82
2021/11/15 14:17:25;;;;;;;74.07;31.35;;;;;;;;;;5056646;28;20052;-82
2021/11/15 14:19:51;;;;;;;68.32;29.17;;;;;;;;;;5056351;28;20049;-83
2021/11/15 14:22:17;;;;;;;69.75;29.67;;;;;;;;;;5073646;28;20060;-83